Genoa, Arkansas
Current Conditions -  °F | °C
As of 10:29 AM on Friday 21 Nov 2014 (Local Time) from KTXK Reporting Station
Light Rain Light Rain  
Wind Chill: 55°   Ceiling: 400
Heat Index: 55°   Visibility: 9mi
Dew Point: 54°   Wind: 5mph
Humidity: 96%   Direction: 110°ESE
Pressure: 30.23"   Gusts: NA
Location:  33.38°N, 93.91°W
Report Text: KTXK 211629Z 11004KT 9SM -RA BKN004 OVC015 13/12 A3023 RMK AO2 CIG 004V008 P0003 T01280122
Loading
Personal Weather Stations






























Interactive Weather Map New forecast layout! Learn more

10-Day Weather Forecast

Advertisements
Track Severe Weather on mobile